Terminal Aerodrome Forecast
Issued by NWS Louisville, KY

Home | Current Version | Previous Version | Text Only | Print | Product List | Glossary On
Versions: 1 2 3 4 5 6 7 8 9 10 11 12 13 14 15 16 17 18 19
000
FTUS43 KLMK 291700 RRA
TAFBWG
TAF
KBWG 291752Z 2918/3018 23013G23KT P6SM VCTS SCT035CB SCT250
     FM292200 24013G20KT P6SM SCT035 BKN100
     FM300000 22006KT P6SM SCT050 SCT100
     FM300900 20003KT 5SM BR SCT250
     FM301200 24008G14KT P6SM SCT050=

USA.gov is the U.S. government's official web portal to all federal, state and local government web resources and services.